Time;durP1;ratioP1;P1;durP2;ratioP2;P2;SDS_P1;SDS_P2;PMS_P1;PMS_P2;Temp;Humidity;BMP_temperature;BMP_pressure;BME280_temperature;BME280_humidity;BME280_pressure;Samples;Min_cycle;Max_cycle;Signal;HPM_P1;HPM_P2
2022/11/19 00:01:11;;;;;;;18.67;12.60;;;5.00;86.90;;;;;;5039955;28;20029;-68
2022/11/19 00:03:38;;;;;;;19.63;12.60;;;4.90;86.80;;;;;;5046451;28;20119;-68
2022/11/19 00:06:06;;;;;;;21.42;14.48;;;5.00;87.00;;;;;;5038199;28;20037;-69
2022/11/19 00:08:32;;;;;;;22.70;13.43;;;4.90;86.90;;;;;;5040017;28;20029;-69
2022/11/19 00:11:07;;;;;;;21.15;13.88;;;4.90;86.90;;;;;;5035586;28;20029;-69
2022/11/19 00:13:33;;;;;;;21.20;14.60;;;4.80;87.00;;;;;;5036671;28;20427;-69
2022/11/19 00:16:11;;;;;;;18.65;12.93;;;4.80;87.10;;;;;;5037184;28;20103;-69
2022/11/19 00:18:37;;;;;;;19.20;13.45;;;4.80;87.40;;;;;;5042679;28;20029;-69
2022/11/19 00:21:06;;;;;;;23.30;15.15;;;4.80;87.40;;;;;;5041898;28;20029;-69
2022/11/19 00:23:32;;;;;;;20.77;14.27;;;4.80;87.40;;;;;;5038803;28;20120;-69
2022/11/19 00:26:10;;;;;;;21.17;13.60;;;4.80;87.50;;;;;;5036460;28;20084;-69
2022/11/19 00:28:36;;;;;;;19.73;14.15;;;4.80;87.70;;;;;;5041775;28;20606;-69
2022/11/19 00:31:09;;;;;;;19.80;13.98;;;4.90;87.50;;;;;;5042417;28;20037;-69
2022/11/19 00:33:36;;;;;;;25.70;15.82;;;4.90;87.20;;;;;;5039541;28;20025;-68
2022/11/19 00:36:03;;;;;;;20.90;13.93;;;4.90;87.00;;;;;;5037089;28;20079;-69
2022/11/19 00:38:29;;;;;;;20.02;14.05;;;4.90;87.00;;;;;;5041074;28;20032;-69
2022/11/19 00:40:55;;;;;;;17.08;12.82;;;4.90;87.00;;;;;;5035426;28;20048;-69
2022/11/19 00:46:05;;;;;;;17.40;12.27;;;4.90;86.40;;;;;;5042460;28;20044;-68
2022/11/19 00:48:31;;;;;;;20.60;13.93;;;4.90;86.50;;;;;;5040578;28;20084;-68
2022/11/19 00:50:57;;;;;;;20.35;14.05;;;4.90;86.20;;;;;;5043285;28;20495;-69
2022/11/19 00:53:22;;;;;;;20.48;15.43;;;4.80;86.00;;;;;;5045893;28;20036;-68
2022/11/19 00:55:48;;;;;;;20.80;14.57;;;4.80;86.00;;;;;;5040574;28;20029;-68
2022/11/19 00:58:13;;;;;;;20.25;14.38;;;4.70;85.60;;;;;;5042031;28;20024;-68
2022/11/19 01:00:39;;;;;;;20.95;14.00;;;4.60;85.70;;;;;;5039738;28;20024;-68
2022/11/19 01:03:05;;;;;;;20.60;14.23;;;4.70;85.90;;;;;;5037888;28;20140;-68
2022/11/19 01:05:31;;;;;;;21.27;15.27;;;4.60;85.70;;;;;;5031687;28;20034;-68
2022/11/19 01:07:57;;;;;;;19.42;14.48;;;4.60;85.90;;;;;;5036478;28;20033;-69
2022/11/19 01:10:22;;;;;;;20.63;14.60;;;4.50;85.90;;;;;;5038497;28;20033;-70
2022/11/19 01:15:32;;;;;;;23.27;16.50;;;4.60;85.90;;;;;;5037074;28;20398;-69
2022/11/19 01:17:57;;;;;;;20.45;14.82;;;4.60;85.90;;;;;;5038986;28;20017;-69
2022/11/19 01:20:23;;;;;;;22.40;15.60;;;4.50;85.70;;;;;;5036351;28;20444;-69
2022/11/19 01:22:48;;;;;;;20.90;14.18;;;4.50;85.60;;;;;;5039578;28;20403;-69
2022/11/19 01:25:14;;;;;;;23.73;15.57;;;4.40;85.70;;;;;;5036845;28;20022;-69
2022/11/19 01:27:40;;;;;;;20.60;15.35;;;4.40;85.70;;;;;;5037426;28;20091;-69
2022/11/19 01:30:07;;;;;;;21.70;15.20;;;4.40;85.70;;;;;;5036680;28;20467;-70
2022/11/19 01:32:32;;;;;;;19.17;14.20;;;4.40;85.60;;;;;;5037369;28;20390;-70
2022/11/19 01:34:58;;;;;;;20.45;15.07;;;4.40;85.30;;;;;;5042093;28;20028;-70
2022/11/19 01:37:24;;;;;;;22.20;16.20;;;4.40;85.20;;;;;;5041938;28;20033;-71
2022/11/19 01:39:50;;;;;;;22.50;16.25;;;4.40;85.00;;;;;;5038569;28;20017;-70
2022/11/19 01:45:34;;;;;;;23.17;16.35;;;4.30;85.00;;;;;;5038606;28;20055;-69
2022/11/19 01:48:38;;;;;;;24.30;16.23;;;4.30;84.90;;;;;;5038164;28;20116;-69
2022/11/19 01:51:12;;;;;;;24.02;16.92;;;4.20;84.80;;;;;;5028413;28;20037;-70
2022/11/19 01:53:39;;;;;;;24.25;16.90;;;4.20;84.70;;;;;;5037006;28;20116;-70
2022/11/19 01:56:07;;;;;;;24.40;17.25;;;4.10;84.80;;;;;;5039686;28;20611;-71
2022/11/19 01:58:38;;;;;;;25.40;17.33;;;4.10;85.00;;;;;;5037343;28;20047;-70
2022/11/19 02:01:05;;;;;;;26.15;17.73;;;4.10;85.20;;;;;;5036332;28;20029;-70
2022/11/19 02:03:31;;;;;;;25.65;17.83;;;4.10;84.80;;;;;;5040783;28;21313;-70
2022/11/19 02:05:59;;;;;;;21.65;15.27;;;4.10;84.60;;;;;;5037187;28;20099;-70
2022/11/19 02:08:33;;;;;;;24.98;17.10;;;4.10;84.70;;;;;;5037680;28;20125;-68
2022/11/19 02:11:01;;;;;;;26.83;18.73;;;4.10;84.50;;;;;;5033010;28;20108;-71
2022/11/19 02:13:54;;;;;;;26.83;19.20;;;4.10;84.00;;;;;;5037762;28;20051;-71
2022/11/19 02:16:49;;;;;;;25.75;17.25;;;4.00;84.00;;;;;;5037937;28;20057;-71
2022/11/19 02:19:15;;;;;;;28.67;18.73;;;4.00;84.20;;;;;;5036282;28;20033;-71
2022/11/19 02:21:47;;;;;;;25.60;17.85;;;4.00;83.80;;;;;;5035646;28;20025;-71
2022/11/19 02:24:24;;;;;;;28.75;20.40;;;4.00;84.10;;;;;;5037041;28;20033;-70
2022/11/19 02:27:14;;;;;;;28.02;19.88;;;4.00;83.70;;;;;;5037496;28;20155;-71
2022/11/19 02:30:04;;;;;;;27.83;18.98;;;4.00;83.60;;;;;;5034004;28;20025;-71
2022/11/19 02:32:39;;;;;;;28.33;18.20;;;3.90;83.80;;;;;;5036088;28;20733;-67
2022/11/19 02:35:23;;;;;;;28.48;20.20;;;3.90;84.00;;;;;;5037603;28;20053;-69
2022/11/19 02:38:12;;;;;;;27.95;19.67;;;3.90;84.20;;;;;;5037317;28;20442;-72
2022/11/19 02:40:43;;;;;;;30.52;21.23;;;3.90;84.20;;;;;;5033008;28;20218;-72
2022/11/19 02:43:34;;;;;;;32.65;22.13;;;3.90;84.00;;;;;;5032789;28;20500;-72
2022/11/19 02:46:08;;;;;;;28.83;20.17;;;3.80;84.00;;;;;;5040641;28;20013;-71
2022/11/19 02:48:38;;;;;;;32.05;21.88;;;3.80;83.90;;;;;;5037746;28;20025;-71
2022/11/19 02:51:05;;;;;;;29.65;21.08;;;3.80;83.90;;;;;;5038983;28;20028;-71
2022/11/19 02:53:32;;;;;;;30.73;21.20;;;3.70;83.80;;;;;;5037826;28;20102;-71
2022/11/19 02:56:09;;;;;;;31.08;21.42;;;3.70;83.70;;;;;;5035019;28;20021;-71
2022/11/19 03:04:32;;;;;;;30.73;21.63;;;3.60;84.00;;;;;;4992852;28;20073;-72
2022/11/19 03:07:05;;;;;;;33.33;21.98;;;3.60;83.80;;;;;;4992692;28;20029;-71
2022/11/19 03:09:33;;;;;;;32.95;22.52;;;3.60;83.80;;;;;;5005802;28;20049;-70
2022/11/19 03:12:07;;;;;;;34.50;22.63;;;3.50;83.90;;;;;;5033277;28;20045;-70
2022/11/19 03:17:44;;;;;;;30.10;21.88;;;3.50;84.00;;;;;;5036457;28;20397;-70
2022/11/19 03:20:25;;;;;;;32.55;21.30;;;3.40;83.90;;;;;;5036533;28;20043;-70
2022/11/19 03:23:04;;;;;;;30.35;21.38;;;3.40;83.90;;;;;;5036176;28;20499;-70
2022/11/19 03:25:37;;;;;;;29.30;21.27;;;3.30;83.90;;;;;;5039514;28;20029;-70
2022/11/19 03:28:08;;;;;;;32.17;22.35;;;3.30;84.10;;;;;;5038524;28;20041;-71
2022/11/19 03:30:36;;;;;;;32.15;21.83;;;3.30;83.90;;;;;;5036081;28;20034;-71
2022/11/19 03:33:09;;;;;;;33.50;22.17;;;3.30;83.70;;;;;;5038326;28;20048;-70
2022/11/19 03:35:52;;;;;;;31.02;22.55;;;3.40;83.90;;;;;;5038354;28;20021;-70
2022/11/19 03:38:27;;;;;;;29.77;21.17;;;3.40;83.70;;;;;;5037736;28;20415;-71
2022/11/19 03:40:55;;;;;;;31.80;23.27;;;3.40;83.50;;;;;;5039548;28;20083;-70
2022/11/19 03:43:25;;;;;;;30.23;20.77;;;3.40;83.50;;;;;;5037405;28;20038;-71
2022/11/19 03:45:55;;;;;;;34.13;23.73;;;3.30;83.50;;;;;;5040040;28;20025;-71
2022/11/19 03:48:22;;;;;;;34.35;23.92;;;3.40;83.50;;;;;;5043118;28;20075;-71
2022/11/19 03:50:53;;;;;;;32.47;22.83;;;3.30;83.40;;;;;;5037872;28;20032;-71
2022/11/19 03:53:19;;;;;;;31.88;22.35;;;3.30;83.20;;;;;;5056180;28;20045;-71
2022/11/19 03:55:52;;;;;;;32.42;22.27;;;3.20;83.40;;;;;;5040504;28;20055;-70
2022/11/19 03:58:17;;;;;;;;;;;3.20;83.50;;;;;;5041614;28;20030;-70
2022/11/19 04:00:43;;;;;;;29.42;20.50;;;3.20;83.40;;;;;;5039731;28;19913;-70
2022/11/19 04:03:08;;;;;;;30.02;21.10;;;3.30;83.60;;;;;;5041110;28;20025;-70
2022/11/19 04:05:34;;;;;;;33.05;22.42;;;3.20;83.40;;;;;;5041349;28;20100;-71
2022/11/19 04:08:00;;;;;;;32.83;22.08;;;3.20;83.30;;;;;;5041952;28;20033;-70
2022/11/19 04:10:25;;;;;;;32.10;22.00;;;3.30;83.30;;;;;;5042092;28;20018;-69
2022/11/19 04:12:51;;;;;;;33.28;22.88;;;3.30;83.30;;;;;;5038521;28;20041;-69
2022/11/19 04:15:16;;;;;;;30.40;21.08;;;3.20;82.80;;;;;;5040760;28;20036;-71
2022/11/19 04:17:42;;;;;;;32.67;22.75;;;3.20;83.10;;;;;;5040015;28;20060;-71
2022/11/19 04:20:08;;;;;;;32.30;22.17;;;3.20;83.20;;;;;;5034932;28;20026;-71
2022/11/19 04:22:34;;;;;;;43.08;27.30;;;3.20;82.80;;;;;;5039896;28;20041;-71
2022/11/19 04:25:00;;;;;;;32.65;22.55;;;3.20;82.70;;;;;;5037635;28;20104;-70
2022/11/19 04:27:25;;;;;;;31.17;21.23;;;3.10;82.80;;;;;;5041025;28;20111;-70
2022/11/19 04:29:51;;;;;;;31.77;22.20;;;3.20;83.10;;;;;;5037083;28;20079;-70
2022/11/19 04:32:16;;;;;;;31.67;21.42;;;3.20;83.00;;;;;;5036946;28;20082;-70
2022/11/19 04:34:42;;;;;;;30.70;20.83;;;3.20;83.00;;;;;;5037970;28;20025;-70
2022/11/19 04:37:07;;;;;;;34.08;23.02;;;3.20;83.10;;;;;;5033639;28;20495;-71
2022/11/19 04:39:33;;;;;;;33.35;23.13;;;3.20;83.60;;;;;;5035648;28;20656;-71
2022/11/19 04:41:59;;;;;;;32.00;21.40;;;3.20;82.90;;;;;;5040210;28;20097;-71
2022/11/19 04:44:24;;;;;;;29.60;21.05;;;3.20;83.00;;;;;;5036604;28;20447;-71
2022/11/19 04:46:50;;;;;;;32.83;23.13;;;3.20;83.10;;;;;;5039633;28;20025;-71
2022/11/19 04:49:15;;;;;;;31.73;20.38;;;3.10;82.90;;;;;;5038423;28;20052;-71
2022/11/19 04:51:41;;;;;;;31.67;21.75;;;3.20;83.10;;;;;;5036575;28;20076;-70
2022/11/19 04:54:10;;;;;;;28.38;19.88;;;3.20;83.10;;;;;;5036285;28;20021;-70
2022/11/19 04:56:36;;;;;;;30.83;21.55;;;3.20;83.10;;;;;;5041209;28;20082;-69
2022/11/19 04:59:02;;;;;;;29.70;20.58;;;3.10;82.80;;;;;;5037862;28;20024;-69
2022/11/19 05:01:28;;;;;;;32.30;22.52;;;3.10;82.90;;;;;;5033153;28;20037;-68
2022/11/19 05:03:53;;;;;;;32.40;22.67;;;3.20;82.70;;;;;;5041381;28;20048;-69
2022/11/19 05:06:19;;;;;;;31.92;21.20;;;3.10;82.70;;;;;;5042145;28;20033;-70
2022/11/19 05:08:44;;;;;;;31.42;21.00;;;3.20;82.80;;;;;;5037917;28;20029;-70
2022/11/19 05:11:10;;;;;;;33.10;22.42;;;3.20;82.60;;;;;;5035951;28;20037;-70
2022/11/19 05:13:35;;;;;;;31.95;21.15;;;3.10;82.40;;;;;;5040010;28;20025;-70
2022/11/19 05:16:01;;;;;;;33.35;21.05;;;3.20;82.50;;;;;;5034560;28;20035;-70
2022/11/19 05:18:27;;;;;;;32.72;22.35;;;3.10;82.20;;;;;;5039514;28;20472;-70
2022/11/19 05:20:52;;;;;;;35.00;23.10;;;3.10;82.30;;;;;;5031611;28;20508;-70
2022/11/19 05:23:18;;;;;;;33.30;21.85;;;3.10;82.20;;;;;;5043558;28;20124;-70
2022/11/19 05:25:43;;;;;;;30.45;21.55;;;3.20;82.50;;;;;;5035116;28;20033;-70
2022/11/19 05:28:09;;;;;;;29.45;20.25;;;3.10;82.00;;;;;;5033881;28;20488;-70
2022/11/19 05:30:34;;;;;;;29.85;19.83;;;3.10;82.80;;;;;;5041702;28;20029;-70
2022/11/19 05:33:00;;;;;;;32.17;22.27;;;3.10;82.10;;;;;;5034674;28;20021;-70
2022/11/19 05:35:26;;;;;;;36.80;23.30;;;3.10;82.10;;;;;;5041510;28;20069;-70
2022/11/19 05:37:51;;;;;;;34.33;22.10;;;3.00;81.70;;;;;;5042123;28;20028;-70
2022/11/19 05:40:18;;;;;;;33.60;22.15;;;2.90;81.70;;;;;;5040612;28;20036;-71
2022/11/19 05:42:44;;;;;;;34.90;23.70;;;2.90;81.80;;;;;;5039832;28;20410;-71
2022/11/19 05:45:11;;;;;;;31.35;21.77;;;2.80;81.90;;;;;;5035550;28;20438;-70
2022/11/19 05:47:36;;;;;;;31.67;21.70;;;2.80;82.00;;;;;;5040037;28;20033;-70
2022/11/19 05:50:03;;;;;;;34.50;22.55;;;2.80;82.20;;;;;;5037372;28;20523;-70
2022/11/19 05:52:28;;;;;;;33.17;21.95;;;2.70;82.00;;;;;;5034941;28;20485;-70
2022/11/19 05:54:54;;;;;;;33.15;21.92;;;2.60;82.10;;;;;;5035574;28;20036;-70
2022/11/19 05:57:19;;;;;;;30.92;21.40;;;2.60;82.00;;;;;;5039716;28;20100;-70
2022/11/19 05:59:45;;;;;;;30.60;21.27;;;2.60;82.20;;;;;;5037749;28;20064;-69
2022/11/19 06:02:10;;;;;;;29.13;19.92;;;2.70;82.40;;;;;;5039250;28;20045;-72
2022/11/19 06:04:36;;;;;;;29.98;19.60;;;2.60;82.10;;;;;;5043773;28;20436;-72
2022/11/19 06:07:02;;;;;;;33.72;21.88;;;2.60;82.10;;;;;;5039868;28;20425;-72
2022/11/19 06:09:28;;;;;;;29.90;20.00;;;2.60;82.00;;;;;;5037689;28;20585;-72
2022/11/19 06:11:53;;;;;;;32.03;21.30;;;2.60;82.00;;;;;;5033524;28;20039;-72
2022/11/19 06:14:21;;;;;;;29.70;19.75;;;2.60;81.80;;;;;;5038079;28;20025;-72
2022/11/19 06:16:49;;;;;;;32.53;21.33;;;2.60;82.00;;;;;;5039661;28;20430;-71
2022/11/19 06:19:14;;;;;;;35.40;23.02;;;2.50;81.70;;;;;;5035761;28;20036;-70
2022/11/19 06:21:39;;;;;;;35.97;23.40;;;2.40;81.80;;;;;;5035894;28;20064;-70
2022/11/19 06:24:05;;;;;;;32.05;21.48;;;2.30;82.00;;;;;;5042166;28;20025;-71
2022/11/19 06:26:31;;;;;;;30.10;20.77;;;2.30;82.20;;;;;;5036250;28;20507;-70
2022/11/19 06:28:57;;;;;;;33.05;22.40;;;2.40;82.50;;;;;;5038509;28;20399;-70
2022/11/19 06:31:23;;;;;;;31.00;21.10;;;2.40;82.40;;;;;;5036238;28;20033;-69
2022/11/19 06:33:49;;;;;;;29.90;20.95;;;2.30;82.20;;;;;;5040823;28;20026;-71
2022/11/19 06:36:15;;;;;;;28.48;19.50;;;2.30;82.30;;;;;;5036963;28;20388;-71
2022/11/19 06:38:40;;;;;;;29.73;19.77;;;2.40;82.40;;;;;;5036008;28;20113;-71
2022/11/19 06:41:06;;;;;;;33.67;22.52;;;2.50;82.30;;;;;;5036400;28;20096;-70
2022/11/19 06:43:32;;;;;;;33.42;22.35;;;2.40;81.70;;;;;;5033219;28;20053;-71
2022/11/19 06:45:57;;;;;;;31.10;20.85;;;2.40;81.70;;;;;;5038481;28;20021;-70
2022/11/19 06:48:23;;;;;;;30.80;19.63;;;2.40;81.90;;;;;;5039386;28;20397;-69
2022/11/19 06:50:48;;;;;;;33.67;21.63;;;2.50;81.80;;;;;;5039813;28;20503;-69
2022/11/19 06:53:14;;;;;;;25.80;17.23;;;2.40;81.40;;;;;;5041744;28;20021;-69
2022/11/19 06:55:39;;;;;;;29.13;20.08;;;2.40;81.70;;;;;;5036677;28;20762;-70
2022/11/19 06:58:06;;;;;;;34.67;22.65;;;2.50;81.40;;;;;;5043561;28;20034;-70
2022/11/19 07:00:33;;;;;;;28.92;19.05;;;2.40;80.70;;;;;;5042360;28;20102;-71
2022/11/19 07:02:58;;;;;;;30.90;20.65;;;2.30;81.10;;;;;;5046177;28;20120;-70
2022/11/19 07:05:24;;;;;;;33.00;22.33;;;2.30;81.00;;;;;;5042051;28;20179;-69
2022/11/19 07:07:50;;;;;;;34.85;22.70;;;2.20;81.10;;;;;;5041931;28;20055;-70
2022/11/19 07:10:15;;;;;;;36.65;23.50;;;2.20;81.30;;;;;;5040712;28;20082;-70
2022/11/19 07:12:41;;;;;;;30.52;19.98;;;2.10;81.00;;;;;;5044671;28;20083;-70
2022/11/19 07:15:07;;;;;;;31.58;21.15;;;2.10;81.50;;;;;;5044817;28;20053;-70
2022/11/19 07:17:33;;;;;;;26.60;17.90;;;2.10;81.50;;;;;;5039912;28;20018;-70
2022/11/19 07:19:59;;;;;;;33.10;21.50;;;2.20;81.80;;;;;;5038031;28;20029;-70
2022/11/19 07:22:25;;;;;;;29.67;19.33;;;2.30;81.40;;;;;;5037931;28;20044;-70
2022/11/19 07:24:51;;;;;;;30.35;20.30;;;2.20;81.40;;;;;;5037599;28;20026;-70
2022/11/19 07:27:17;;;;;;;33.83;21.63;;;2.20;81.30;;;;;;5041009;28;20029;-70
2022/11/19 07:29:42;;;;;;;30.35;19.92;;;2.10;81.30;;;;;;5036391;28;20025;-70
2022/11/19 07:32:08;;;;;;;31.05;20.13;;;2.10;81.40;;;;;;5040659;28;20108;-70
2022/11/19 07:34:33;;;;;;;31.10;21.35;;;2.20;81.60;;;;;;5037975;28;20491;-70
2022/11/19 07:36:59;;;;;;;31.50;20.38;;;2.10;81.00;;;;;;5041564;28;20473;-70
2022/11/19 07:39:24;;;;;;;28.55;19.25;;;2.10;81.00;;;;;;5043571;28;20025;-70
2022/11/19 07:44:34;;;;;;;30.83;20.35;;;2.10;81.10;;;;;;5040792;28;20107;-70
2022/11/19 07:47:00;;;;;;;30.85;20.77;;;2.10;80.70;;;;;;5036218;28;20025;-70
2022/11/19 07:49:25;;;;;;;32.13;20.58;;;2.00;80.60;;;;;;5035931;28;20025;-70
2022/11/19 07:51:52;;;;;;;31.20;21.15;;;2.00;80.80;;;;;;5039110;28;20377;-70
2022/11/19 07:54:18;;;;;;;29.88;19.92;;;1.90;80.70;;;;;;5039626;28;20025;-70
2022/11/19 07:56:43;;;;;;;31.55;20.17;;;2.00;80.70;;;;;;5038193;28;20408;-70
2022/11/19 07:59:09;;;;;;;34.55;22.23;;;1.90;80.20;;;;;;5041204;28;21333;-70
2022/11/19 08:01:35;;;;;;;29.25;19.85;;;1.80;80.10;;;;;;5038726;28;20134;-70
2022/11/19 08:04:01;;;;;;;31.48;20.75;;;1.80;80.30;;;;;;5035543;28;20472;-69
2022/11/19 08:06:28;;;;;;;33.03;21.38;;;1.80;79.90;;;;;;5043455;28;20095;-69
2022/11/19 08:08:55;;;;;;;30.17;19.55;;;1.70;79.50;;;;;;5037073;28;20110;-70
2022/11/19 08:11:21;;;;;;;30.75;19.80;;;1.60;79.80;;;;;;5041987;28;20503;-70
2022/11/19 08:13:47;;;;;;;27.10;18.70;;;1.60;80.20;;;;;;5039839;28;20017;-70
2022/11/19 08:18:11;;;;;;;28.63;18.55;;;1.70;80.40;;;;;;5039952;28;20026;-70
2022/11/19 08:19:11;;;;;;;27.23;18.67;;;1.70;80.20;;;;;;5042721;28;20032;-69
2022/11/19 08:21:40;;;;;;;28.42;18.13;;;1.70;80.10;;;;;;5041036;28;20032;-70
2022/11/19 08:24:07;;;;;;;28.02;18.88;;;1.70;79.80;;;;;;5039756;28;20052;-69
2022/11/19 08:26:33;;;;;;;29.98;18.73;;;1.70;79.80;;;;;;5039390;28;20029;-69
2022/11/19 08:28:58;;;;;;;29.85;18.92;;;1.60;79.60;;;;;;5035512;28;20071;-70
2022/11/19 08:31:24;;;;;;;27.73;18.33;;;1.60;80.00;;;;;;5036902;28;20024;-70
2022/11/19 08:33:50;;;;;;;28.25;17.88;;;1.50;79.80;;;;;;5041199;28;20014;-70
2022/11/19 08:36:15;;;;;;;28.65;19.00;;;1.60;79.90;;;;;;5039931;28;20082;-70
2022/11/19 08:38:41;;;;;;;28.25;19.17;;;1.40;79.20;;;;;;5038676;28;20091;-70
2022/11/19 08:43:51;;;;;;;25.25;16.98;;;1.40;79.50;;;;;;5042834;28;20102;-70
2022/11/19 08:46:17;;;;;;;28.73;17.92;;;1.30;79.60;;;;;;5035694;28;20033;-70
2022/11/19 08:48:42;;;;;;;27.80;18.17;;;1.30;79.50;;;;;;5038973;28;20032;-70
2022/11/19 08:51:09;;;;;;;28.50;18.73;;;1.30;79.70;;;;;;5037280;28;20025;-70
2022/11/19 08:53:35;;;;;;;25.75;17.50;;;1.20;79.40;;;;;;5039755;28;20053;-70
2022/11/19 08:56:00;;;;;;;27.25;17.92;;;1.10;79.10;;;;;;5042400;28;20455;-70
2022/11/19 08:58:26;;;;;;;27.45;17.92;;;1.10;79.60;;;;;;5037754;28;20391;-70
2022/11/19 09:00:51;;;;;;;23.88;16.52;;;1.10;79.60;;;;;;5041763;28;20127;-70
2022/11/19 09:03:17;;;;;;;27.45;17.98;;;1.10;79.90;;;;;;5039925;28;20090;-70
2022/11/19 09:05:43;;;;;;;23.98;16.75;;;1.10;79.70;;;;;;5037120;28;20060;-70
2022/11/19 09:08:08;;;;;;;26.10;17.80;;;1.20;79.90;;;;;;5035612;28;20036;-70
2022/11/19 09:10:36;;;;;;;25.35;17.02;;;1.20;79.50;;;;;;5045976;28;20018;-70
2022/11/19 09:13:02;;;;;;;22.70;15.35;;;1.30;79.40;;;;;;5035143;28;20052;-70
2022/11/19 09:15:28;;;;;;;24.73;16.33;;;1.40;79.20;;;;;;5036947;28;20033;-70
2022/11/19 09:17:53;;;;;;;21.70;15.23;;;1.40;78.60;;;;;;5040024;28;20032;-70
2022/11/19 09:20:19;;;;;;;22.70;14.88;;;1.40;78.70;;;;;;5040018;28;20064;-70
2022/11/19 09:22:44;;;;;;;23.38;15.75;;;1.50;78.60;;;;;;5039128;28;20029;-70
2022/11/19 09:25:10;;;;;;;24.05;17.15;;;1.60;78.30;;;;;;5041363;28;20029;-70
2022/11/19 09:27:36;;;;;;;22.25;15.50;;;1.50;77.70;;;;;;5042057;28;20033;-70
2022/11/19 09:30:06;;;;;;;22.58;15.65;;;1.50;77.50;;;;;;5041713;28;20021;-70
2022/11/19 09:32:32;;;;;;;24.00;15.95;;;1.50;77.60;;;;;;5039956;28;20475;-70
2022/11/19 09:34:58;;;;;;;23.77;16.38;;;1.50;77.00;;;;;;5041120;28;20154;-70
2022/11/19 09:37:24;;;;;;;21.75;15.13;;;1.50;77.20;;;;;;5042942;28;20067;-70
2022/11/19 09:39:49;;;;;;;23.52;15.07;;;1.50;77.40;;;;;;5037590;28;20028;-70
2022/11/19 09:42:29;;;;;;;23.00;15.95;;;1.60;77.50;;;;;;5042290;28;20041;-70
2022/11/19 09:45:25;;;;;;;21.20;14.32;;;1.60;76.80;;;;;;5045431;28;20044;-70
2022/11/19 09:48:02;;;;;;;24.27;15.80;;;1.70;77.10;;;;;;5045168;28;20036;-70
2022/11/19 09:50:31;;;;;;;23.77;16.15;;;1.80;76.60;;;;;;5044323;28;20120;-70
2022/11/19 09:53:08;;;;;;;23.08;15.75;;;1.70;76.20;;;;;;5046613;28;20017;-70
2022/11/19 09:55:41;;;;;;;21.67;14.77;;;1.70;75.70;;;;;;5046341;28;20495;-70
2022/11/19 09:58:19;;;;;;;19.25;13.40;;;1.70;75.70;;;;;;5044235;28;20025;-70
2022/11/19 10:00:44;;;;;;;22.98;14.73;;;1.80;76.00;;;;;;5038260;28;20091;-69
2022/11/19 10:03:16;;;;;;;20.25;13.93;;;1.80;75.60;;;;;;5040744;28;20025;-69
2022/11/19 10:06:08;;;;;;;21.55;14.50;;;1.80;75.50;;;;;;5041305;28;20033;-69
2022/11/19 10:08:52;;;;;;;22.35;15.90;;;1.90;75.00;;;;;;5042841;28;20706;-69
2022/11/19 10:11:42;;;;;;;19.65;13.35;;;1.90;75.00;;;;;;5040681;28;20049;-69
2022/11/19 10:14:35;;;;;;;19.67;14.07;;;1.90;75.00;;;;;;5038364;28;20040;-69
2022/11/19 10:17:19;;;;;;;;;;;1.90;74.50;;;;;;5041293;28;20031;-69
2022/11/19 10:19:55;;;;;;;21.20;14.18;;;1.90;74.40;;;;;;5040412;28;19967;-69
2022/11/19 10:22:26;;;;;;;21.23;14.95;;;1.90;74.30;;;;;;5042197;28;20624;-69
2022/11/19 10:25:20;;;;;;;19.08;13.80;;;1.90;73.90;;;;;;5043652;28;20049;-69
2022/11/19 10:27:45;;;;;;;21.33;14.05;;;2.00;74.00;;;;;;5040333;28;20088;-70
2022/11/19 10:30:19;;;;;;;18.95;12.68;;;2.10;73.90;;;;;;5036680;28;20535;-70
2022/11/19 10:33:06;;;;;;;19.45;14.00;;;2.20;73.70;;;;;;5036887;28;20044;-70
2022/11/19 10:35:37;;;;;;;16.90;12.43;;;2.20;72.80;;;;;;5037225;28;20075;-69
2022/11/19 10:38:14;;;;;;;18.80;13.57;;;2.30;73.20;;;;;;5036989;28;20487;-70
2022/11/19 10:40:48;;;;;;;19.02;13.40;;;2.30;71.70;;;;;;5038744;28;20029;-69
2022/11/19 10:43:16;;;;;;;19.52;13.50;;;2.30;71.80;;;;;;5038738;28;20029;-69
2022/11/19 10:45:42;;;;;;;18.80;13.02;;;2.30;72.00;;;;;;5043239;28;20155;-70
2022/11/19 10:48:22;;;;;;;20.33;13.30;;;2.50;72.10;;;;;;5043663;28;20547;-70
2022/11/19 10:50:48;;;;;;;17.65;13.02;;;2.40;70.80;;;;;;5043527;28;20455;-70
2022/11/19 10:53:28;;;;;;;29.58;17.70;;;2.40;70.50;;;;;;5046456;28;20091;-69
2022/11/19 10:56:00;;;;;;;18.40;12.80;;;2.40;70.80;;;;;;5045284;28;20157;-69
2022/11/19 10:58:44;;;;;;;18.90;13.00;;;2.40;70.50;;;;;;5048317;28;20056;-69
2022/11/19 11:01:20;;;;;;;15.88;11.40;;;2.40;70.70;;;;;;5044080;28;20064;-69
2022/11/19 11:03:50;;;;;;;17.73;12.80;;;2.50;71.10;;;;;;5044988;28;20021;-69
2022/11/19 11:06:16;;;;;;;16.77;11.90;;;2.50;70.50;;;;;;5047235;28;20029;-69
2022/11/19 11:08:53;;;;;;;18.77;12.98;;;2.60;70.90;;;;;;5045625;28;20036;-69
2022/11/19 11:16:58;;;;;;;16.48;11.75;;;2.60;69.00;;;;;;5045712;28;20028;-69
2022/11/19 11:19:24;;;;;;;15.43;11.38;;;2.60;69.20;;;;;;5046449;28;20031;-69
2022/11/19 11:21:53;;;;;;;15.35;11.10;;;2.70;69.20;;;;;;5048972;28;20785;-69
2022/11/19 11:24:19;;;;;;;14.77;10.85;;;2.70;70.10;;;;;;5048300;28;20029;-69
2022/11/19 11:26:44;;;;;;;15.32;10.60;;;2.90;69.60;;;;;;5046055;28;20401;-69
2022/11/19 11:29:13;;;;;;;15.98;11.43;;;3.00;69.30;;;;;;5049942;28;20033;-69
2022/11/19 11:31:44;;;;;;;15.57;11.00;;;3.10;69.00;;;;;;5041671;28;20043;-69
2022/11/19 11:34:26;;;;;;;15.38;10.60;;;3.20;69.00;;;;;;5042572;28;20024;-69
2022/11/19 11:36:52;;;;;;;17.60;11.77;;;3.30;68.70;;;;;;5047204;28;20025;-69
2022/11/19 11:39:34;;;;;;;15.98;11.18;;;3.20;67.30;;;;;;5048882;28;20013;-69
2022/11/19 11:42:00;;;;;;;;;;;3.10;67.30;;;;;;5040561;28;20039;-69
2022/11/19 11:44:32;;;;;;;14.38;10.85;;;3.10;67.20;;;;;;5043177;28;19908;-69
2022/11/19 11:47:02;;;;;;;15.13;10.98;;;3.20;67.50;;;;;;5044340;28;20044;-69
2022/11/19 11:49:41;;;;;;;15.93;12.02;;;3.20;67.60;;;;;;5044156;28;20061;-69
2022/11/19 11:52:44;;;;;;;15.52;11.07;;;3.40;67.40;;;;;;5044411;28;20025;-69
2022/11/19 11:55:30;;;;;;;15.10;10.63;;;4.70;64.70;;;;;;5046062;28;20033;-69
2022/11/19 11:58:01;;;;;;;12.90;10.20;;;6.60;59.60;;;;;;5044363;28;20028;-70
2022/11/19 12:00:36;;;;;;;15.68;10.88;;;6.90;56.50;;;;;;5037942;28;20045;-70
2022/11/19 12:03:07;;;;;;;13.45;9.48;;;6.10;54.50;;;;;;5040969;28;20036;-70
2022/11/19 12:05:47;;;;;;;13.80;10.30;;;5.20;57.70;;;;;;5042332;28;20096;-70
2022/11/19 12:08:20;;;;;;;15.63;10.23;;;4.60;59.40;;;;;;5041112;28;20075;-70
2022/11/19 12:10:56;;;;;;;13.93;10.00;;;4.30;60.60;;;;;;5043360;28;20108;-70
2022/11/19 12:13:24;;;;;;;13.18;9.88;;;4.20;60.90;;;;;;5041788;28;20024;-70
2022/11/19 12:16:17;;;;;;;17.45;10.10;;;5.20;58.60;;;;;;5042200;28;20018;-70
2022/11/19 12:19:01;;;;;;;12.07;9.25;;;5.80;56.80;;;;;;5042460;28;20680;-70
2022/11/19 12:21:51;;;;;;;11.60;8.60;;;6.70;54.80;;;;;;5041013;28;20127;-70
2022/11/19 12:24:36;;;;;;;11.57;9.23;;;7.20;54.00;;;;;;5037643;28;20040;-70
2022/11/19 12:27:21;;;;;;;11.85;8.88;;;7.60;53.00;;;;;;5038303;28;20028;-71
2022/11/19 12:30:04;;;;;;;11.98;9.43;;;7.60;51.60;;;;;;5041365;28;20033;-71
2022/11/19 12:33:22;;;;;;;11.88;8.80;;;7.60;51.30;;;;;;5039101;28;20530;-70
2022/11/19 12:36:08;;;;;;;10.90;8.57;;;7.50;50.70;;;;;;4976771;28;20112;-70
2022/11/19 12:38:37;;;;;;;12.07;8.85;;;7.60;51.00;;;;;;5042293;28;20025;-70
2022/11/19 12:41:40;;;;;;;11.98;9.50;;;7.90;50.50;;;;;;5039680;28;20029;-70
2022/11/19 12:44:20;;;;;;;13.10;9.57;;;8.30;50.80;;;;;;5036502;28;20047;-70
2022/11/19 12:46:56;;;;;;;10.68;8.30;;;8.80;50.60;;;;;;5039688;28;20045;-70
2022/11/19 12:49:39;;;;;;;11.32;8.90;;;8.70;48.10;;;;;;5037411;28;20025;-71
2022/11/19 12:52:34;;;;;;;12.00;8.60;;;8.40;48.20;;;;;;5036831;28;20119;-70
2022/11/19 12:55:03;;;;;;;9.50;7.88;;;8.00;48.00;;;;;;5040143;28;20028;-71
2022/11/19 12:57:51;;;;;;;9.52;7.22;;;8.00;48.10;;;;;;5041576;28;20384;-71
2022/11/19 13:00:22;;;;;;;9.52;7.60;;;8.00;48.70;;;;;;5040297;28;20531;-70
2022/11/19 13:03:13;;;;;;;9.05;6.78;;;8.10;48.10;;;;;;5038717;28;20021;-71
2022/11/19 13:05:54;;;;;;;8.18;6.75;;;8.00;48.10;;;;;;5040279;28;20029;-70
2022/11/19 13:08:26;;;;;;;9.05;7.07;;;8.00;47.10;;;;;;5039593;28;20132;-71
2022/11/19 13:10:56;;;;;;;7.13;5.78;;;7.50;46.90;;;;;;5042394;28;20041;-70
2022/11/19 13:13:27;;;;;;;7.53;6.28;;;7.70;48.20;;;;;;5037882;28;20647;-70
2022/11/19 13:15:57;;;;;;;7.55;5.75;;;7.70;48.00;;;;;;5040066;28;20424;-70
2022/11/19 13:18:28;;;;;;;8.13;6.57;;;8.00;48.30;;;;;;5040039;28;20047;-70
2022/11/19 13:21:07;;;;;;;10.73;8.45;;;8.00;47.90;;;;;;5038134;28;20034;-70
2022/11/19 13:23:38;;;;;;;11.77;9.35;;;7.80;47.80;;;;;;5038779;28;20034;-70